createdAt,value
2018-11-04T00:00:20.252Z,89.36
2018-11-04T00:02:50.523Z,89.46
2018-11-04T00:05:20.504Z,88.66
2018-11-04T00:07:51.107Z,89.49
2018-11-04T00:10:20.698Z,89.08
2018-11-04T00:12:50.239Z,89.42
2018-11-04T00:15:19.795Z,89.02
2018-11-04T00:17:49.488Z,89.15
2018-11-04T00:20:19.095Z,88.95
2018-11-04T00:22:48.642Z,89.66
2018-11-04T00:25:18.169Z,89.26
2018-11-04T00:27:47.848Z,89.74
2018-11-04T00:30:18.304Z,88.79
2018-11-04T00:32:47.874Z,89.46
2018-11-04T00:35:17.395Z,89.78
2018-11-04T00:37:46.964Z,90.28
2018-11-04T00:40:16.528Z,90.13
2018-11-04T00:42:46.120Z,90.10
2018-11-04T00:45:15.675Z,90.55
2018-11-04T00:47:45.240Z,90.66
2018-11-04T00:50:15.951Z,90.84
2018-11-04T00:52:45.905Z,90.26
2018-11-04T00:55:15.493Z,90.56
2018-11-04T00:57:45.273Z,91.00
2018-11-04T01:00:17.758Z,90.57
2018-11-04T01:02:48.572Z,91.44
2018-11-04T01:05:18.688Z,91.74
2018-11-04T01:07:48.222Z,91.91
2018-11-04T01:10:17.670Z,91.88
2018-11-04T01:12:47.125Z,91.61
2018-11-04T01:15:16.691Z,91.62
2018-11-04T01:17:46.100Z,91.57
2018-11-04T01:20:17.217Z,91.17
2018-11-04T01:22:46.763Z,91.38
2018-11-04T01:25:16.207Z,90.67
2018-11-04T01:27:45.703Z,90.34
2018-11-04T01:30:15.888Z,90.69
2018-11-04T01:32:45.602Z,91.56
2018-11-04T01:35:15.115Z,91.32
2018-11-04T01:37:44.584Z,91.52
2018-11-04T01:40:14.048Z,91.54
2018-11-04T01:42:43.557Z,91.97
2018-11-04T01:45:13.025Z,91.75
2018-11-04T01:47:43.596Z,91.26
2018-11-04T01:50:14.785Z,91.83
2018-11-04T01:52:45.012Z,91.60
2018-11-04T01:55:14.508Z,92.53
2018-11-04T01:57:44.775Z,92.38
2018-11-04T02:00:17.304Z,92.01
2018-11-04T02:02:47.272Z,91.89
2018-11-04T02:05:16.808Z,91.65
2018-11-04T02:07:46.295Z,91.78
2018-11-04T02:10:16.256Z,92.27
2018-11-04T02:12:45.715Z,92.74
2018-11-04T02:15:15.129Z,92.20
2018-11-04T02:17:44.590Z,92.55
2018-11-04T02:20:14.341Z,92.48
2018-11-04T02:22:43.785Z,92.14
2018-11-04T02:25:16.251Z,92.31
2018-11-04T02:27:45.784Z,92.05
2018-11-04T02:30:16.588Z,92.04
2018-11-04T02:32:47.035Z,91.74
2018-11-04T02:35:16.907Z,92.09
2018-11-04T02:37:46.452Z,91.75
2018-11-04T02:40:15.916Z,92.25
2018-11-04T02:42:45.332Z,91.81
2018-11-04T02:45:14.807Z,92.29
2018-11-04T02:47:44.291Z,92.67
2018-11-04T02:50:13.804Z,92.67
2018-11-04T02:52:43.271Z,92.75
2018-11-04T02:55:12.731Z,92.44
2018-11-04T02:57:42.164Z,92.10
2018-11-04T03:00:14.253Z,92.20
2018-11-04T03:02:43.860Z,92.34
2018-11-04T03:05:13.300Z,92.64
2018-11-04T03:07:43.344Z,92.34
2018-11-04T03:10:14.139Z,92.15
2018-11-04T03:12:44.602Z,92.34
2018-11-04T03:15:14.047Z,92.10
2018-11-04T03:17:43.487Z,92.11
2018-11-04T03:20:12.920Z,92.44
2018-11-04T03:22:42.408Z,92.58
2018-11-04T03:25:12.791Z,92.87
2018-11-04T03:27:42.314Z,92.57
2018-11-04T03:30:11.722Z,92.35
2018-11-04T03:32:41.151Z,92.59
2018-11-04T03:35:10.605Z,92.64
2018-11-04T03:37:40.016Z,92.35
2018-11-04T03:40:11.623Z,92.32
2018-11-04T03:42:41.396Z,92.45
2018-11-04T03:45:11.072Z,92.44
2018-11-04T03:47:40.943Z,92.79
2018-11-04T03:50:12.485Z,93.00
2018-11-04T03:52:42.535Z,92.13
2018-11-04T03:55:12.642Z,91.45
2018-11-04T03:57:42.081Z,91.74
2018-11-04T04:00:12.920Z,92.82
2018-11-04T04:02:43.408Z,92.91
2018-11-04T04:05:12.885Z,93.45
2018-11-04T04:07:42.317Z,93.62
2018-11-04T04:10:11.780Z,93.71
2018-11-04T04:12:41.293Z,93.72
2018-11-04T04:15:11.712Z,93.83
2018-11-04T04:17:41.527Z,93.20
2018-11-04T04:20:10.962Z,92.84
2018-11-04T04:22:40.421Z,92.58
2018-11-04T04:25:10.184Z,92.79
2018-11-04T04:27:39.658Z,92.37
2018-11-04T04:30:11.038Z,92.59
2018-11-04T04:32:40.514Z,92.92
2018-11-04T04:35:10.853Z,92.48
2018-11-04T04:37:40.816Z,92.78
2018-11-04T04:40:10.653Z,92.17
2018-11-04T04:42:40.099Z,92.39
2018-11-04T04:45:09.533Z,91.95
2018-11-04T04:47:38.979Z,91.96
2018-11-04T04:50:08.496Z,91.72
2018-11-04T04:52:37.960Z,91.99
2018-11-04T04:55:08.099Z,92.35
2018-11-04T04:57:37.675Z,92.71
2018-11-04T05:00:08.057Z,92.32
2018-11-04T05:02:37.531Z,92.44
2018-11-04T05:05:07.232Z,91.55
2018-11-04T05:07:36.768Z,91.75
2018-11-04T05:10:06.662Z,92.16
2018-11-04T05:12:36.223Z,91.94
2018-11-04T05:15:09.078Z,91.80
2018-11-04T05:17:39.319Z,91.68
2018-11-04T05:20:08.775Z,92.18
2018-11-04T05:22:39.313Z,91.72
2018-11-04T05:25:08.783Z,91.95
2018-11-04T05:27:38.884Z,92.18
2018-11-04T05:30:12.572Z,91.87
2018-11-04T05:32:42.067Z,92.18
2018-11-04T05:35:11.624Z,92.22
2018-11-04T05:37:41.093Z,92.03
2018-11-04T05:40:10.718Z,92.21
2018-11-04T05:42:40.260Z,92.73
2018-11-04T05:45:10.049Z,92.34
2018-11-04T05:47:39.505Z,92.22
2018-11-04T05:50:08.951Z,92.36
2018-11-04T05:52:38.704Z,92.53
2018-11-04T05:55:08.915Z,92.00
2018-11-04T05:57:38.579Z,92.41
2018-11-04T06:00:10.388Z,92.49
2018-11-04T06:02:40.395Z,92.52
2018-11-04T06:05:11.051Z,92.65
2018-11-04T06:07:40.783Z,92.90
2018-11-04T06:10:10.230Z,93.01
2018-11-04T06:12:39.704Z,93.37
2018-11-04T06:15:09.889Z,93.20
2018-11-04T06:17:39.327Z,93.60
2018-11-04T06:20:11.343Z,93.50
2018-11-04T06:22:41.655Z,93.31
2018-11-04T06:25:11.107Z,93.70
2018-11-04T06:27:40.702Z,93.87
2018-11-04T06:30:12.453Z,93.48
2018-11-04T06:32:43.354Z,93.28
2018-11-04T06:35:13.341Z,93.59
2018-11-04T06:37:43.280Z,94.03
2018-11-04T06:40:14.020Z,94.25
2018-11-04T06:42:44.100Z,93.45
2018-11-04T06:45:14.341Z,93.70
2018-11-04T06:47:44.417Z,93.42
2018-11-04T06:50:16.201Z,93.59
2018-11-04T06:52:46.310Z,94.11
2018-11-04T06:55:16.044Z,94.03
2018-11-04T06:58:02.840Z,93.79
2018-11-04T07:00:32.999Z,93.92
2018-11-04T07:03:03.449Z,93.98
2018-11-04T07:05:33.408Z,93.03
2018-11-04T07:08:04.755Z,93.02
2018-11-04T07:10:34.849Z,93.18
2018-11-04T07:13:05.033Z,93.32
2018-11-04T07:15:35.541Z,92.60
2018-11-04T07:18:08.919Z,92.83
2018-11-04T07:20:38.731Z,92.99
2018-11-04T07:23:08.330Z,92.84
2018-11-04T07:25:40.136Z,92.78
2018-11-04T07:28:09.848Z,92.26
2018-11-04T07:30:42.059Z,91.79
2018-11-04T07:33:11.929Z,92.41
2018-11-04T07:35:41.447Z,92.48
2018-11-04T07:38:11.035Z,92.29
2018-11-04T07:40:40.787Z,91.83
2018-11-04T07:43:10.616Z,92.32
2018-11-04T07:45:40.319Z,91.94
2018-11-04T07:48:09.932Z,92.19
2018-11-04T07:50:39.899Z,92.06
2018-11-04T07:53:09.388Z,92.21
2018-11-04T07:55:38.987Z,92.36
2018-11-04T07:58:08.572Z,92.19
2018-11-04T08:00:38.655Z,91.81
2018-11-04T08:03:08.080Z,92.16
2018-11-04T08:05:37.450Z,91.94
2018-11-04T08:08:06.914Z,92.13
2018-11-04T08:10:36.393Z,92.14
2018-11-04T08:13:05.910Z,91.90
2018-11-04T08:15:35.299Z,92.06
2018-11-04T08:18:05.031Z,91.92
2018-11-04T08:20:34.491Z,91.66
2018-11-04T08:23:03.928Z,91.86
2018-11-04T08:25:33.317Z,92.08
2018-11-04T08:28:02.768Z,92.19
2018-11-04T08:30:32.173Z,91.38
2018-11-04T08:33:01.571Z,91.38
2018-11-04T08:35:30.961Z,90.43
2018-11-04T08:38:00.445Z,91.33
2018-11-04T08:40:29.900Z,91.64
2018-11-04T08:42:59.414Z,91.67
2018-11-04T08:45:28.823Z,91.80
2018-11-04T08:47:58.215Z,91.62
2018-11-04T08:50:27.863Z,90.94
2018-11-04T08:52:57.244Z,90.96
2018-11-04T08:55:26.595Z,91.32
2018-11-04T08:57:56.049Z,91.20
2018-11-04T09:00:25.478Z,91.19
2018-11-04T09:02:54.972Z,91.12
2018-11-04T09:05:24.408Z,90.90
2018-11-04T09:07:53.753Z,90.95
2018-11-04T09:10:23.300Z,91.26
2018-11-04T09:12:52.811Z,90.18
2018-11-04T09:15:22.196Z,90.37
2018-11-04T09:17:51.640Z,90.54
2018-11-04T09:20:21.157Z,90.19
2018-11-04T09:22:50.515Z,90.50
2018-11-04T09:25:19.880Z,90.28
2018-11-04T09:27:49.298Z,90.35
2018-11-04T09:30:18.739Z,89.72
2018-11-04T09:32:48.255Z,89.66
2018-11-04T09:35:17.815Z,89.43
2018-11-04T09:37:47.211Z,89.48
2018-11-04T09:40:16.587Z,89.50
2018-11-04T09:42:46.084Z,88.98
2018-11-04T09:45:15.455Z,89.51
2018-11-04T09:47:44.843Z,89.80
2018-11-04T09:50:14.406Z,90.24
2018-11-04T09:52:43.864Z,90.15
2018-11-04T09:55:13.736Z,90.20
2018-11-04T09:57:43.177Z,90.11
2018-11-04T10:00:13.375Z,89.92
2018-11-04T10:02:42.831Z,90.56
2018-11-04T10:05:12.408Z,89.79
2018-11-04T10:07:41.835Z,89.41
2018-11-04T10:10:14.005Z,89.21
2018-11-04T10:12:44.364Z,88.99
2018-11-04T10:15:14.717Z,88.70
2018-11-04T10:17:44.099Z,89.05
2018-11-04T10:20:13.842Z,89.14
2018-11-04T10:22:43.284Z,88.62
2018-11-04T10:25:16.039Z,87.13
2018-11-04T10:27:45.532Z,87.72
2018-11-04T10:30:16.221Z,88.47
2018-11-04T10:32:46.150Z,87.83
2018-11-04T10:35:15.573Z,87.65
2018-11-04T10:37:45.036Z,88.37
2018-11-04T10:40:14.633Z,88.56
2018-11-04T10:42:44.155Z,87.86
2018-11-04T10:45:13.746Z,88.25
2018-11-04T10:47:43.212Z,87.85
2018-11-04T10:50:13.577Z,87.88
2018-11-04T10:52:43.192Z,87.66
2018-11-04T10:55:12.743Z,87.82
2018-11-04T10:57:42.203Z,87.00
2018-11-04T11:00:17.512Z,86.65
2018-11-04T11:02:47.078Z,87.49
2018-11-04T11:05:16.842Z,86.66
2018-11-04T11:07:46.465Z,86.59
2018-11-04T11:10:16.044Z,86.53
2018-11-04T11:12:45.527Z,87.04
2018-11-04T11:15:15.285Z,87.02
2018-11-04T11:17:44.839Z,86.96
2018-11-04T11:20:14.363Z,87.42
2018-11-04T11:22:44.071Z,87.02
2018-11-04T11:25:13.502Z,86.63
2018-11-04T11:27:42.969Z,85.92
2018-11-04T11:30:12.571Z,87.28
2018-11-04T11:32:41.852Z,86.37
2018-11-04T11:35:11.361Z,85.85
2018-11-04T11:37:40.787Z,85.28
2018-11-04T11:40:10.593Z,84.65
2018-11-04T11:42:40.240Z,85.03
2018-11-04T11:45:10.144Z,85.48
2018-11-04T11:47:39.583Z,84.80
2018-11-04T11:50:09.274Z,85.09
2018-11-04T11:52:38.728Z,85.58
2018-11-04T11:55:08.382Z,85.42
2018-11-04T11:57:37.879Z,84.33
2018-11-04T12:00:09.434Z,84.73
2018-11-04T12:02:39.861Z,84.45
2018-11-04T12:05:09.507Z,84.48
2018-11-04T12:07:39.392Z,84.44
2018-11-04T12:10:13.163Z,85.12
2018-11-04T12:12:42.705Z,83.91
2018-11-04T12:15:13.094Z,83.45
2018-11-04T12:17:42.841Z,84.19
2018-11-04T12:20:13.265Z,84.72
2018-11-04T12:22:42.856Z,83.82
2018-11-04T12:25:13.336Z,84.02
2018-11-04T12:27:43.081Z,84.30
2018-11-04T12:30:15.073Z,82.63
2018-11-04T12:32:44.609Z,82.06
2018-11-04T12:35:14.672Z,82.11
2018-11-04T12:37:44.075Z,82.94
2018-11-04T12:40:14.104Z,83.79
2018-11-04T12:42:43.579Z,82.79
2018-11-04T12:45:13.623Z,83.35
2018-11-04T12:47:43.185Z,83.62
2018-11-04T12:50:13.456Z,82.60
2018-11-04T12:52:42.883Z,82.39
2018-11-04T12:55:12.268Z,82.35
2018-11-04T12:57:41.684Z,83.02
2018-11-04T13:00:14.474Z,83.06
2018-11-04T13:02:44.673Z,83.48
2018-11-04T13:05:14.115Z,83.24
2018-11-04T13:07:43.536Z,83.34
2018-11-04T13:10:14.241Z,83.83
2018-11-04T13:12:43.637Z,84.70
2018-11-04T13:15:14.287Z,84.67
2018-11-04T13:17:44.149Z,84.61
2018-11-04T13:20:13.675Z,84.58
2018-11-04T13:22:43.204Z,84.88
2018-11-04T13:25:12.691Z,84.70
2018-11-04T13:27:42.518Z,85.30
2018-11-04T13:30:13.268Z,84.74
2018-11-04T13:32:42.832Z,84.86
2018-11-04T13:35:12.283Z,84.97
2018-11-04T13:37:41.726Z,84.83
2018-11-04T13:40:12.481Z,85.84
2018-11-04T13:42:42.662Z,86.15
2018-11-04T13:45:12.464Z,86.02
2018-11-04T13:47:41.855Z,86.09
2018-11-04T13:50:13.046Z,86.58
2018-11-04T13:52:43.024Z,86.33
2018-11-04T13:55:12.444Z,86.52
2018-11-04T13:57:41.903Z,86.26
2018-11-04T14:00:14.564Z,86.44
2018-11-04T14:02:44.961Z,86.56
2018-11-04T14:05:14.439Z,85.85
2018-11-04T14:07:43.783Z,86.40
2018-11-04T14:10:14.952Z,86.69
2018-11-04T14:12:44.873Z,86.84
2018-11-04T14:15:15.049Z,86.90
2018-11-04T14:17:44.587Z,86.62
2018-11-04T14:20:14.149Z,86.64
2018-11-04T14:22:43.590Z,86.72
2018-11-04T14:25:13.377Z,86.90
2018-11-04T14:27:42.924Z,87.06
2018-11-04T14:30:14.300Z,86.33
2018-11-04T14:32:44.189Z,86.60
2018-11-04T14:35:13.768Z,86.76
2018-11-04T14:37:43.684Z,87.06
2018-11-04T14:40:15.252Z,86.75
2018-11-04T14:42:45.579Z,87.16
2018-11-04T14:45:15.076Z,86.80
2018-11-04T14:47:44.569Z,87.35
2018-11-04T14:50:18.855Z,87.62
2018-11-04T14:52:48.990Z,87.32
2018-11-04T14:55:18.418Z,87.04
2018-11-04T14:57:47.852Z,87.82
2018-11-04T15:00:17.620Z,87.65
2018-11-04T15:02:47.330Z,87.41
2018-11-04T15:05:16.739Z,87.60
2018-11-04T15:07:46.248Z,87.87
2018-11-04T15:10:16.250Z,87.78
2018-11-04T15:12:45.744Z,87.90
2018-11-04T15:15:16.894Z,87.79
2018-11-04T15:17:56.603Z,87.76
2018-11-04T15:20:26.208Z,88.29
2018-11-04T15:22:55.657Z,87.50
2018-11-04T15:25:25.103Z,87.71
2018-11-04T15:27:54.686Z,88.49
2018-11-04T15:30:24.269Z,88.66
2018-11-04T15:32:53.739Z,88.69
2018-11-04T15:35:23.188Z,87.87
2018-11-04T15:37:52.683Z,88.13
2018-11-04T15:40:22.140Z,87.75
2018-11-04T15:42:51.592Z,87.42
2018-11-04T15:45:21.075Z,87.88
2018-11-04T15:47:50.929Z,88.55
2018-11-04T15:50:21.491Z,88.41
2018-11-04T15:52:50.995Z,88.22
2018-11-04T15:55:20.531Z,88.48
2018-11-04T15:57:49.995Z,88.73
2018-11-04T16:00:20.274Z,88.29
2018-11-04T16:02:49.773Z,88.92
2018-11-04T16:05:19.302Z,89.09
2018-11-04T16:07:49.563Z,88.93
2018-11-04T16:10:19.352Z,88.83
2018-11-04T16:12:49.062Z,89.23
2018-11-04T16:15:18.710Z,89.32
2018-11-04T16:17:48.521Z,89.26
2018-11-04T16:20:21.613Z,88.91
2018-11-04T16:22:51.567Z,89.32
2018-11-04T16:25:21.156Z,88.94
2018-11-04T16:27:50.933Z,89.19
2018-11-04T16:30:20.953Z,89.32
2018-11-04T16:32:51.116Z,89.79
2018-11-04T16:35:20.587Z,89.87
2018-11-04T16:37:50.670Z,89.98
2018-11-04T16:40:20.557Z,89.98
2018-11-04T16:42:50.362Z,89.77
2018-11-04T16:45:20.302Z,89.68
2018-11-04T16:47:50.352Z,90.44
2018-11-04T16:53:52.537Z,89.92
2018-11-04T16:56:21.972Z,90.44
2018-11-04T16:58:51.475Z,90.15
2018-11-04T17:01:44.564Z,90.23
2018-11-04T17:07:20.233Z,90.54
2018-11-04T17:12:33.056Z,90.37
2018-11-04T17:15:03.352Z,90.30
2018-11-04T17:17:33.498Z,90.90
2018-11-04T17:20:03.551Z,90.62
2018-11-04T17:22:36.384Z,90.95
2018-11-04T17:25:10.688Z,90.90
2018-11-04T17:27:41.720Z,91.07
2018-11-04T17:30:16.583Z,90.98
2018-11-04T17:32:48.019Z,90.99
2018-11-04T17:38:06.071Z,91.28
2018-11-04T17:43:33.253Z,90.61
2018-11-04T17:46:04.627Z,91.04
2018-11-04T17:48:34.089Z,91.61
2018-11-04T17:51:03.581Z,91.60
2018-11-04T17:53:33.051Z,91.87
2018-11-04T17:56:02.466Z,92.09
2018-11-04T17:58:31.902Z,91.88
2018-11-04T18:01:01.332Z,92.24
2018-11-04T18:03:30.947Z,92.84
2018-11-04T18:06:00.622Z,92.80
2018-11-04T18:08:30.071Z,92.93
2018-11-04T18:10:59.498Z,92.14
2018-11-04T18:13:28.951Z,93.01
2018-11-04T18:15:58.398Z,93.01
2018-11-04T18:18:27.858Z,92.73
2018-11-04T18:20:57.316Z,93.06
2018-11-04T18:23:26.900Z,92.85
2018-11-04T18:25:56.315Z,93.21
2018-11-04T18:28:25.739Z,93.11
2018-11-04T18:30:55.239Z,93.18
2018-11-04T18:33:24.656Z,93.48
2018-11-04T18:35:54.057Z,93.26
2018-11-04T18:38:23.512Z,93.65
2018-11-04T18:40:52.969Z,93.69
2018-11-04T18:43:22.421Z,93.81
2018-11-04T18:45:51.881Z,93.60
2018-11-04T18:48:21.307Z,93.27
2018-11-04T18:50:50.773Z,93.23
2018-11-04T18:53:20.252Z,92.34
2018-11-04T18:55:49.680Z,92.88
2018-11-04T18:58:19.074Z,93.17
2018-11-04T19:00:48.549Z,93.30
2018-11-04T19:03:17.958Z,93.64
2018-11-04T19:05:47.410Z,93.27
2018-11-04T19:08:17.031Z,93.45
2018-11-04T19:10:46.549Z,93.72
2018-11-04T19:13:16.114Z,93.37
2018-11-04T19:15:45.588Z,92.98
2018-11-04T19:18:15.069Z,92.65
2018-11-04T19:20:44.655Z,92.95
2018-11-04T19:23:14.184Z,93.24
2018-11-04T19:25:43.719Z,93.17
2018-11-04T19:28:13.212Z,93.10
2018-11-04T19:30:42.747Z,93.05
2018-11-04T19:33:12.262Z,92.95
2018-11-04T19:35:41.700Z,93.70
2018-11-04T19:38:11.249Z,93.48
2018-11-04T19:40:40.693Z,93.62
2018-11-04T19:43:10.306Z,94.09
2018-11-04T19:45:39.796Z,93.67
2018-11-04T19:48:09.299Z,93.86
2018-11-04T19:50:38.759Z,93.62
2018-11-04T19:53:07.873Z,93.33
2018-11-04T19:55:37.411Z,92.52
2018-11-04T19:58:07.003Z,92.96
2018-11-04T20:00:36.731Z,93.40
2018-11-04T20:03:06.571Z,92.88
2018-11-04T20:05:37.270Z,93.12
2018-11-04T20:08:07.231Z,93.67
2018-11-04T20:10:36.697Z,93.76
2018-11-04T20:13:12.271Z,93.74
2018-11-04T20:15:41.826Z,93.58
2018-11-04T20:18:17.091Z,93.63
2018-11-04T20:20:46.585Z,93.53
2018-11-04T20:23:16.673Z,93.55
2018-11-04T20:25:51.460Z,93.83
2018-11-04T20:28:21.011Z,94.01
2018-11-04T20:30:50.503Z,93.67
2018-11-04T20:33:19.957Z,93.97
2018-11-04T20:35:50.449Z,93.87
2018-11-04T20:38:23.062Z,94.07
2018-11-04T20:40:58.843Z,94.04
2018-11-04T20:43:28.275Z,94.25
2018-11-04T20:45:57.688Z,93.91
2018-11-04T20:49:35.459Z,93.86
2018-11-04T20:52:04.945Z,93.65
2018-11-04T20:54:34.296Z,93.41
2018-11-04T20:58:11.947Z,93.35
2018-11-04T21:00:42.177Z,93.27
2018-11-04T21:03:11.616Z,93.75
2018-11-04T21:05:41.019Z,93.40
2018-11-04T21:08:10.462Z,93.96
2018-11-04T21:10:40.013Z,93.41
2018-11-04T21:13:09.506Z,93.31
2018-11-04T21:15:39.009Z,93.40
2018-11-04T21:18:08.561Z,94.10
2018-11-04T21:20:37.974Z,93.98
2018-11-04T21:23:07.401Z,93.16
2018-11-04T21:25:37.098Z,93.30
2018-11-04T21:28:06.911Z,92.99
2018-11-04T21:30:36.513Z,93.64
2018-11-04T21:33:06.340Z,93.72
2018-11-04T21:35:35.943Z,93.66
2018-11-04T21:38:05.553Z,93.44
2018-11-04T21:40:35.091Z,93.10
2018-11-04T21:43:04.691Z,93.41
2018-11-04T21:45:34.722Z,92.85
2018-11-04T21:48:04.274Z,93.73
2018-11-04T21:50:33.774Z,93.48
2018-11-04T21:53:03.246Z,93.56
2018-11-04T21:55:32.857Z,93.79
2018-11-04T21:58:02.187Z,93.42
2018-11-04T22:00:31.641Z,93.05
2018-11-04T22:03:01.092Z,93.30
2018-11-04T22:05:31.575Z,93.73
2018-11-04T22:08:01.025Z,93.53
2018-11-04T22:10:30.580Z,93.66
2018-11-04T22:13:00.149Z,93.46
2018-11-04T22:15:29.609Z,93.19
2018-11-04T22:17:59.014Z,93.10
2018-11-04T22:20:28.590Z,93.43
2018-11-04T22:22:58.058Z,93.72
2018-11-04T22:25:27.459Z,93.73
2018-11-04T22:27:56.947Z,93.54
2018-11-04T22:30:26.438Z,93.55
2018-11-04T22:32:55.862Z,93.99
2018-11-04T22:35:25.608Z,93.03
2018-11-04T22:37:55.080Z,93.24
2018-11-04T22:40:24.846Z,93.75
2018-11-04T22:42:54.302Z,93.76
2018-11-04T22:45:23.665Z,93.59
2018-11-04T22:47:53.410Z,94.20
2018-11-04T22:50:24.198Z,93.85
2018-11-04T22:52:53.622Z,94.18
2018-11-04T22:55:23.051Z,93.82
2018-11-04T22:57:52.655Z,94.02
2018-11-04T23:00:27.292Z,94.54
2018-11-04T23:02:56.811Z,93.93
2018-11-04T23:05:27.176Z,93.72
2018-11-04T23:07:56.800Z,93.99
2018-11-04T23:10:26.304Z,93.80
2018-11-04T23:12:55.767Z,93.89
2018-11-04T23:15:25.418Z,93.75
2018-11-04T23:17:54.944Z,93.61
2018-11-04T23:20:24.451Z,93.76
2018-11-04T23:22:54.063Z,93.78
2018-11-04T23:25:23.574Z,93.79
2018-11-04T23:27:53.074Z,93.28
2018-11-04T23:30:22.540Z,93.26
2018-11-04T23:32:52.026Z,93.42
2018-11-04T23:35:21.898Z,93.72
2018-11-04T23:37:51.491Z,93.66
2018-11-04T23:40:21.113Z,93.61
2018-11-04T23:42:50.643Z,93.97
2018-11-04T23:45:20.288Z,94.00
2018-11-04T23:47:49.782Z,94.29
2018-11-04T23:50:19.477Z,94.72
2018-11-04T23:52:49.099Z,94.18
2018-11-04T23:55:18.633Z,94.52
2018-11-04T23:57:48.113Z,93.77
